Time;durP1;ratioP1;P1;durP2;ratioP2;P2;SDS_P1;SDS_P2;PMS_P1;PMS_P2;Temp;Humidity;BMP_temperature;BMP_pressure;BME280_temperature;BME280_humidity;BME280_pressure;Samples;Min_cycle;Max_cycle;Signal;HPM_P1;HPM_P2
2021/12/23 00:01:19;;;;;;;10.57;4.30;;;;;;;25.27;31.48;96835.56;4977214;28;20034;-31
2021/12/23 00:03:44;;;;;;;12.82;4.13;;;;;;;25.28;31.48;96837.25;4977220;28;20038;-34
2021/12/23 00:06:10;;;;;;;10.27;4.13;;;;;;;25.27;31.34;96827.69;4985341;28;20034;-31
2021/12/23 00:08:35;;;;;;;9.80;4.03;;;;;;;25.27;31.35;96827.69;4988794;28;20443;-33
2021/12/23 00:11:01;;;;;;;10.45;3.85;;;;;;;25.28;31.47;96826.75;4984317;28;20030;-31
2021/12/23 00:13:26;;;;;;;9.55;3.67;;;;;;;25.27;31.39;96825.06;4976946;28;20026;-35
2021/12/23 00:18:43;;;;;;;8.50;3.72;;;;;;;25.27;31.20;96818.97;4976314;28;20033;-31
2021/12/23 00:23:56;;;;;;;7.85;3.60;;;;;;;25.27;31.29;96832.06;4977320;28;20081;-31
2021/12/23 00:26:21;;;;;;;6.90;3.60;;;;;;;25.26;31.37;96818.13;4983131;28;20033;-29
2021/12/23 00:28:47;;;;;;;10.63;3.30;;;;;;;25.25;31.37;96811.16;4964739;28;20018;-34
2021/12/23 00:31:14;;;;;;;7.50;3.40;;;;;;;25.25;31.23;96819.03;4978020;28;20421;-28
2021/12/23 00:33:40;;;;;;;8.38;3.20;;;;;;;25.26;31.18;96798.91;4975609;28;20037;-31
2021/12/23 00:36:07;;;;;;;11.07;3.75;;;;;;;25.25;31.30;96800.66;4956545;28;20034;-29
2021/12/23 00:38:37;;;;;;;10.20;3.60;;;;;;;25.25;31.25;96805.91;4975980;28;20041;-28
2021/12/23 00:41:03;;;;;;;7.07;3.00;;;;;;;25.26;31.33;96806.78;4977075;28;20083;-32
2021/12/23 00:43:30;;;;;;;6.13;3.42;;;;;;;25.25;31.31;96791.97;4980244;28;20030;-32
2021/12/23 00:45:55;;;;;;;5.60;3.05;;;;;;;25.24;31.27;96790.28;4958025;28;20591;-35
2021/12/23 00:48:21;;;;;;;10.43;3.40;;;;;;;25.23;31.12;96784.19;4983294;28;20021;-31
2021/12/23 00:50:47;;;;;;;8.23;3.50;;;;;;;25.23;31.30;96794.66;4986421;28;20029;-31
2021/12/23 00:53:17;;;;;;;8.48;3.28;;;;;;;25.22;31.28;96782.50;4981510;28;20057;-32
2021/12/23 00:55:44;;;;;;;7.22;3.22;;;;;;;25.24;31.21;96785.03;4963630;28;20049;-30
2021/12/23 00:58:10;;;;;;;5.88;3.20;;;;;;;25.23;31.24;96789.41;4982986;28;20113;-30
2021/12/23 01:00:35;;;;;;;6.60;3.00;;;;;;;25.20;31.08;96783.50;4970158;28;20029;-34
2021/12/23 01:03:03;;;;;;;5.75;3.10;;;;;;;25.22;31.25;96787.72;4982445;28;20033;-33
2021/12/23 01:05:28;;;;;;;7.47;3.20;;;;;;;25.22;31.36;96779.88;4983121;28;20544;-32
2021/12/23 01:07:54;;;;;;;6.95;2.88;;;;;;;25.22;31.18;96777.25;4990363;28;20036;-32
2021/12/23 01:10:22;;;;;;;8.98;3.20;;;;;;;25.22;30.99;96766.75;4987367;28;20191;-32
2021/12/23 01:12:52;;;;;;;6.95;2.78;;;;;;;25.22;31.17;96769.38;4980990;28;20026;-29
2021/12/23 01:18:08;;;;;;;6.53;3.00;;;;;;;25.21;31.16;96758.97;4980627;28;20040;-30
2021/12/23 01:20:35;;;;;;;;;;;;;;;25.20;31.18;96768.59;4968155;28;20059;-27
2021/12/23 01:23:09;;;;;;;4.90;2.70;;;;;;;25.20;31.19;96763.34;4963608;28;19932;-28
2021/12/23 01:25:36;;;;;;;5.45;2.72;;;;;;;25.19;30.96;96766.91;4964069;28;20034;-34
2021/12/23 01:28:03;;;;;;;7.22;2.80;;;;;;;25.18;30.89;96765.22;4981726;28;20459;-36
2021/12/23 01:30:28;;;;;;;5.63;3.13;;;;;;;25.17;31.18;96750.41;4980645;28;20022;-31
2021/12/23 01:32:56;;;;;;;6.03;2.83;;;;;;;25.16;31.09;96762.66;4980095;28;20532;-33
2021/12/23 01:35:21;;;;;;;8.23;3.03;;;;;;;25.17;31.12;96750.41;4980070;28;20037;-28
2021/12/23 01:37:47;;;;;;;4.38;2.55;;;;;;;25.17;30.92;96753.03;4984390;28;20351;-32
2021/12/23 01:40:13;;;;;;;4.65;2.45;;;;;;;25.16;31.06;96746.06;4968049;28;20037;-32
2021/12/23 01:42:39;;;;;;;4.90;2.60;;;;;;;25.15;31.18;96742.63;4986350;28;20033;-29
2021/12/23 01:45:15;;;;;;;5.10;2.53;;;;;;;25.14;31.04;96733.03;4985182;28;20069;-33
2021/12/23 01:47:41;;;;;;;4.30;2.55;;;;;;;25.16;31.12;96736.44;4983969;28;20029;-30
2021/12/23 01:50:07;;;;;;;4.70;2.63;;;;;;;25.16;31.08;96735.59;4987844;28;20034;-33
2021/12/23 01:52:32;;;;;;;4.50;2.72;;;;;;;25.15;31.08;96724.25;4983048;28;20180;-32
2021/12/23 01:54:58;;;;;;;6.20;2.50;;;;;;;25.14;31.07;96722.53;4983508;28;20304;-32
2021/12/23 01:57:24;;;;;;;5.18;2.70;;;;;;;25.13;30.89;96714.78;4984631;28;20116;-35
2021/12/23 01:59:49;;;;;;;6.97;2.70;;;;;;;25.13;30.82;96710.38;4967525;28;20093;-34
2021/12/23 02:02:14;;;;;;;4.10;2.25;;;;;;;25.12;30.94;96713.06;4973103;28;20034;-33
2021/12/23 02:04:40;;;;;;;4.15;2.60;;;;;;;25.13;31.14;96704.28;4967620;28;20713;-29
2021/12/23 02:07:05;;;;;;;4.80;2.50;;;;;;;25.12;30.91;96702.56;4987360;28;20046;-31
2021/12/23 02:09:30;;;;;;;5.53;2.30;;;;;;;25.11;30.91;96706.13;4968696;28;20025;-33
2021/12/23 02:11:56;;;;;;;4.43;2.47;;;;;;;25.11;31.13;96700.88;4983392;28;20044;-30
2021/12/23 02:14:22;;;;;;;4.03;2.58;;;;;;;25.12;30.77;96702.56;4951858;28;20022;-33
2021/12/23 02:16:48;;;;;;;3.45;2.28;;;;;;;25.11;31.00;96699.13;4984623;28;20121;-35
2021/12/23 02:19:16;;;;;;;4.20;2.30;;;;;;;25.09;31.14;96693.09;4985257;28;20614;-31
2021/12/23 02:21:42;;;;;;;4.40;2.35;;;;;;;25.10;30.80;96691.34;4967438;28;20041;-31
2021/12/23 02:24:07;;;;;;;4.75;2.47;;;;;;;25.11;30.85;96693.03;4966133;28;20034;-29
2021/12/23 02:26:37;;;;;;;6.05;2.60;;;;;;;25.10;30.80;96692.19;4990694;28;20022;-29
2021/12/23 02:29:02;;;;;;;4.80;2.97;;;;;;;25.11;30.79;96693.03;4994018;28;20041;-31
2021/12/23 02:31:28;;;;;;;3.55;2.17;;;;;;;25.10;30.92;96693.94;4991002;28;20034;-32
2021/12/23 02:33:53;;;;;;;3.90;2.50;;;;;;;25.09;30.95;96682.59;4990583;28;20031;-32
2021/12/23 02:36:18;;;;;;;4.07;2.17;;;;;;;25.08;30.78;96685.31;4992357;28;20151;-33
2021/12/23 02:38:44;;;;;;;4.40;2.22;;;;;;;25.08;30.89;96682.69;4985358;28;20400;-34
2021/12/23 02:41:09;;;;;;;4.57;2.42;;;;;;;25.07;30.84;96679.22;4985869;28;20062;-30
2021/12/23 02:43:36;;;;;;;3.85;2.28;;;;;;;25.09;30.74;96673.91;4983062;28;20022;-29
2021/12/23 02:46:02;;;;;;;3.25;2.08;;;;;;;25.08;30.73;96669.56;4989747;28;21010;-35
2021/12/23 02:48:30;;;;;;;3.78;1.90;;;;;;;25.05;30.80;96666.19;4982899;28;20036;-32
2021/12/23 02:50:56;;;;;;;4.50;2.17;;;;;;;25.07;30.98;96662.66;4984219;28;20289;-34
2021/12/23 02:53:21;;;;;;;4.10;2.10;;;;;;;25.07;30.74;96657.41;4984155;28;20073;-34
2021/12/23 02:55:47;;;;;;;3.90;2.10;;;;;;;25.05;30.89;96654.84;4982787;28;20048;-31
2021/12/23 02:58:12;;;;;;;3.15;1.95;;;;;;;25.05;30.84;96653.09;4985459;28;20057;-31
2021/12/23 03:00:38;;;;;;;4.72;2.15;;;;;;;25.05;30.86;96644.38;4983862;28;20038;-30
2021/12/23 03:03:04;;;;;;;3.40;2.08;;;;;;;25.04;30.77;96637.44;4984039;28;20045;-33
2021/12/23 03:05:29;;;;;;;5.53;2.13;;;;;;;25.04;30.81;96637.44;4984013;28;20037;-30
2021/12/23 03:07:55;;;;;;;3.20;1.95;;;;;;;25.03;30.83;96647.09;4989278;28;20084;-32
2021/12/23 03:10:23;;;;;;;4.43;2.17;;;;;;;25.03;30.85;96644.47;4969967;28;20503;-30
2021/12/23 03:12:49;;;;;;;3.38;2.25;;;;;;;25.04;30.91;96640.91;4982755;28;20021;-29
2021/12/23 03:15:15;;;;;;;3.53;2.00;;;;;;;25.04;30.87;96633.06;4980729;28;20543;-27
2021/12/23 03:17:40;;;;;;;6.43;4.15;;;;;;;25.02;30.59;96634.06;4983929;28;20038;-32
2021/12/23 03:20:06;;;;;;;6.43;2.75;;;;;;;25.01;30.39;96633.19;4984054;28;20073;-29
2021/12/23 03:22:31;;;;;;;7.40;2.30;;;;;;;25.00;30.57;96631.50;4983621;28;20037;-36
2021/12/23 03:24:57;;;;;;;4.22;2.20;;;;;;;25.00;30.76;96630.66;4980482;28;20037;-33
2021/12/23 03:27:22;;;;;;;6.05;2.28;;;;;;;24.97;30.70;96626.41;4967500;28;20042;-33
2021/12/23 03:29:47;;;;;;;2.85;1.90;;;;;;;24.97;30.70;96621.19;4983952;28;20038;-32
2021/12/23 03:32:13;;;;;;;2.22;1.60;;;;;;;24.97;30.87;96620.34;4982224;28;20045;-31
2021/12/23 03:34:38;;;;;;;3.60;2.60;;;;;;;24.97;30.71;96618.56;4984803;28;20026;-33
2021/12/23 03:37:04;;;;;;;3.70;1.73;;;;;;;24.96;30.80;96610.78;4983136;28;20108;-30
2021/12/23 03:39:29;;;;;;;2.67;1.98;;;;;;;24.96;30.56;96603.75;4983721;28;20018;-30
2021/12/23 03:41:55;;;;;;;3.60;2.10;;;;;;;24.96;30.75;96602.91;4982378;28;20027;-28
2021/12/23 03:44:20;;;;;;;4.38;1.90;;;;;;;24.96;30.74;96597.66;4983487;28;20080;-30
2021/12/23 03:46:45;;;;;;;3.00;1.95;;;;;;;24.96;30.76;96590.66;4982756;28;20026;-34
2021/12/23 03:49:11;;;;;;;3.28;1.70;;;;;;;24.95;30.63;96581.09;4983161;28;20112;-28
2021/12/23 03:51:36;;;;;;;2.35;1.73;;;;;;;24.95;30.76;96591.59;4966105;28;20091;-28
2021/12/23 03:54:02;;;;;;;2.72;1.73;;;;;;;24.94;30.69;96584.63;4982863;28;20053;-34
2021/12/23 03:56:27;;;;;;;2.53;1.70;;;;;;;24.95;30.57;96581.09;4982503;28;20037;-33
2021/12/23 03:58:54;;;;;;;2.22;1.60;;;;;;;24.95;30.68;96586.34;4983282;28;20022;-30
2021/12/23 04:01:24;;;;;;;2.33;1.70;;;;;;;24.95;30.63;96575.88;4980846;28;20744;-34
2021/12/23 04:03:50;;;;;;;3.55;1.98;;;;;;;24.95;30.48;96585.50;4983477;28;20025;-29
2021/12/23 04:06:16;;;;;;;2.95;1.85;;;;;;;24.94;30.49;96584.63;4972063;28;20025;-31
2021/12/23 04:08:41;;;;;;;3.10;1.90;;;;;;;24.95;30.52;96586.34;4965080;28;20029;-28
2021/12/23 04:11:07;;;;;;;2.78;1.60;;;;;;;24.95;30.50;96586.34;4981153;28;20041;-33
2021/12/23 04:13:32;;;;;;;2.88;1.63;;;;;;;24.94;30.57;96579.38;4981998;28;20026;-34
2021/12/23 04:15:58;;;;;;;3.60;1.70;;;;;;;24.90;30.57;96583.13;4980756;28;20029;-31
2021/12/23 04:18:23;;;;;;;2.67;1.40;;;;;;;24.94;30.68;96584.63;4980881;28;20084;-35
2021/12/23 04:20:55;;;;;;;2.88;1.63;;;;;;;24.94;30.47;96587.25;4983163;28;20068;-33
2021/12/23 04:23:25;;;;;;;4.63;1.90;;;;;;;24.94;30.58;96579.38;4965071;28;20036;-27
2021/12/23 04:25:50;;;;;;;2.80;1.90;;;;;;;24.93;30.42;96575.09;4985458;28;20029;-29
2021/12/23 04:28:16;;;;;;;3.58;1.90;;;;;;;24.92;30.60;96562.91;4985848;28;20033;-33
2021/12/23 04:30:41;;;;;;;2.50;1.90;;;;;;;24.92;30.42;96552.44;4983624;28;20034;-33
2021/12/23 04:33:07;;;;;;;2.97;1.88;;;;;;;24.91;30.37;96553.38;4980060;28;20072;-36
2021/12/23 04:35:32;;;;;;;4.22;2.20;;;;;;;24.90;30.61;96546.44;4981676;28;20033;-30
2021/12/23 04:37:58;;;;;;;2.03;1.60;;;;;;;24.91;30.83;96548.94;4982409;28;20631;-33
2021/12/23 04:40:23;;;;;;;2.45;2.08;;;;;;;24.89;30.39;96550.81;4981369;28;20037;-31
2021/12/23 04:42:48;;;;;;;2.08;1.73;;;;;;;24.89;30.58;96557.81;4986190;28;20823;-30
2021/12/23 04:45:14;;;;;;;2.35;1.60;;;;;;;24.89;30.40;96558.69;4966461;28;20033;-29
2021/12/23 04:47:40;;;;;;;2.63;1.70;;;;;;;24.89;30.60;96557.81;4985084;28;20496;-34
2021/12/23 04:50:07;;;;;;;1.88;1.63;;;;;;;24.89;30.46;96542.97;4984383;28;20033;-30
2021/12/23 04:52:32;;;;;;;2.53;1.70;;;;;;;24.88;30.49;96537.78;4982116;28;20069;-35
2021/12/23 04:54:58;;;;;;;2.75;1.60;;;;;;;24.88;30.63;96545.66;4964725;28;21033;-34
2021/12/23 04:57:23;;;;;;;2.55;1.80;;;;;;;24.89;30.39;96534.22;4983067;28;20030;-31
2021/12/23 04:59:49;;;;;;;2.38;1.58;;;;;;;24.89;30.61;96534.22;4979701;28;20032;-36
2021/12/23 05:02:14;;;;;;;2.75;1.67;;;;;;;24.87;30.50;96525.63;4980713;28;20858;-34
2021/12/23 05:04:39;;;;;;;2.35;1.60;;;;;;;24.88;30.38;96522.06;4979953;28;20096;-32
2021/12/23 05:07:05;;;;;;;1.83;1.50;;;;;;;24.88;30.39;96516.81;4983068;28;20049;-28
2021/12/23 05:09:30;;;;;;;2.53;1.80;;;;;;;24.87;30.30;96517.75;4986869;28;20030;-29
2021/12/23 05:11:56;;;;;;;2.33;1.60;;;;;;;24.88;30.45;96522.06;4947776;28;20026;-32
2021/12/23 05:14:21;;;;;;;2.45;1.70;;;;;;;24.87;30.30;96525.63;4980655;28;20050;-35
2021/12/23 05:16:46;;;;;;;2.33;1.67;;;;;;;24.86;30.54;96524.75;4960986;28;20030;-35
2021/12/23 05:19:12;;;;;;;4.63;1.70;;;;;;;24.87;30.52;96525.63;4984484;28;20424;-32
2021/12/23 05:21:37;;;;;;;2.13;1.65;;;;;;;24.86;30.39;96524.75;4981730;28;20039;-30
2021/12/23 05:24:03;;;;;;;1.60;1.50;;;;;;;24.86;30.48;96518.69;4979273;28;20036;-29
2021/12/23 05:26:28;;;;;;;2.40;1.30;;;;;;;24.87;30.30;96530.88;4979472;28;20468;-32
2021/12/23 05:28:54;;;;;;;1.98;1.30;;;;;;;24.86;30.58;96523.94;4982147;28;20509;-29
2021/12/23 05:31:19;;;;;;;3.38;1.55;;;;;;;24.86;30.30;96534.41;4980573;28;20030;-32
2021/12/23 05:33:44;;;;;;;2.03;1.67;;;;;;;24.85;30.34;96533.56;4980683;28;20022;-28
2021/12/23 05:36:10;;;;;;;1.90;1.55;;;;;;;24.85;30.33;96532.69;4980282;28;20491;-32
2021/12/23 05:38:35;;;;;;;1.92;1.48;;;;;;;24.85;30.37;96528.31;4955726;28;20030;-34
2021/12/23 05:41:01;;;;;;;2.05;1.40;;;;;;;24.84;30.40;96521.41;4981860;28;20177;-27
2021/12/23 05:43:26;;;;;;;1.90;1.60;;;;;;;24.85;30.40;96514.34;4963897;28;20611;-34
2021/12/23 05:45:51;;;;;;;2.22;1.40;;;;;;;24.84;30.62;96515.28;4964579;28;20153;-31
2021/12/23 05:48:17;;;;;;;2.35;1.65;;;;;;;24.84;30.51;96505.66;4963040;28;20035;-33
2021/12/23 05:50:42;;;;;;;1.75;1.50;;;;;;;24.84;30.43;96505.66;4981444;28;20493;-31
2021/12/23 05:53:08;;;;;;;1.80;1.48;;;;;;;24.83;30.47;96505.72;4979907;28;20030;-26
2021/12/23 05:55:33;;;;;;;1.58;1.48;;;;;;;24.83;30.33;96503.94;4966237;28;21752;-29
2021/12/23 05:57:58;;;;;;;2.38;1.52;;;;;;;24.83;30.61;96501.31;4980895;28;20908;-34
2021/12/23 06:00:26;;;;;;;1.98;1.38;;;;;;;24.83;30.51;96487.38;4980501;28;20046;-33
2021/12/23 06:02:51;;;;;;;1.40;1.30;;;;;;;24.82;30.41;96486.50;4978746;28;20080;-31
2021/12/23 06:05:17;;;;;;;2.78;1.40;;;;;;;24.82;30.31;96489.13;4981645;28;20027;-31
2021/12/23 06:07:42;;;;;;;2.72;1.20;;;;;;;24.82;30.36;96486.50;4967263;28;20030;-32
2021/12/23 06:10:08;;;;;;;2.05;1.38;;;;;;;24.80;30.47;96478.72;4980466;28;20030;-31
2021/12/23 06:12:34;;;;;;;1.88;1.20;;;;;;;24.82;30.34;96476.03;4980010;28;20040;-33
2021/12/23 06:14:59;;;;;;;1.27;1.17;;;;;;;24.82;30.63;96477.81;4982365;28;20066;-32
2021/12/23 06:17:24;;;;;;;1.80;1.30;;;;;;;24.82;30.38;96480.44;4982117;28;20416;-38
2021/12/23 06:19:50;;;;;;;2.53;1.13;;;;;;;24.81;30.48;96492.69;4980822;28;20033;-29
2021/12/23 06:22:17;;;;;;;2.55;1.40;;;;;;;24.81;30.56;96487.44;4963748;28;20096;-32
2021/12/23 06:24:45;;;;;;;1.65;1.15;;;;;;;24.80;30.36;96489.22;4983800;28;20030;-29
2021/12/23 06:27:10;;;;;;;2.10;1.30;;;;;;;24.80;30.45;96483.97;4973400;28;20459;-33
2021/12/23 06:29:36;;;;;;;3.15;1.50;;;;;;;24.80;30.52;96504.94;4987856;28;20037;-34
2021/12/23 06:32:01;;;;;;;1.50;1.30;;;;;;;24.80;30.43;96509.34;4982267;28;21330;-32
2021/12/23 06:34:27;;;;;;;1.52;1.30;;;;;;;24.78;30.47;96488.47;4984199;28;20033;-32
2021/12/23 06:36:52;;;;;;;2.42;1.40;;;;;;;24.78;30.45;96500.69;4984462;28;21318;-27
2021/12/23 06:39:18;;;;;;;1.35;1.25;;;;;;;24.78;30.57;96509.44;4968187;28;20503;-32
2021/12/23 06:41:43;;;;;;;1.40;1.25;;;;;;;24.77;30.39;96507.75;4985675;28;20030;-31
2021/12/23 06:44:08;;;;;;;1.70;1.40;;;;;;;24.78;30.39;96511.19;4970402;28;20037;-32
2021/12/23 06:46:34;;;;;;;1.45;1.20;;;;;;;24.78;30.37;96506.81;4983791;28;20144;-31
2021/12/23 06:48:59;;;;;;;1.80;1.70;;;;;;;24.78;30.47;96493.69;4983025;28;23617;-34
2021/12/23 06:51:28;;;;;;;1.90;1.70;;;;;;;24.78;30.42;96491.09;4985455;28;20061;-29
2021/12/23 06:53:53;;;;;;;1.83;1.50;;;;;;;24.76;30.43;96486.84;4985717;28;20025;-33
2021/12/23 06:56:19;;;;;;;2.20;1.50;;;;;;;24.76;30.45;96492.94;4952013;28;20023;-33
2021/12/23 06:58:48;;;;;;;1.15;0.90;;;;;;;24.76;30.46;96497.34;4983515;28;20042;-32
2021/12/23 07:01:17;;;;;;;1.50;1.33;;;;;;;24.76;30.42;96497.34;4981523;28;20030;-35
2021/12/23 07:04:05;;;;;;;1.58;1.30;;;;;;;24.76;30.55;96495.56;4984234;28;20049;-30
2021/12/23 07:06:32;;;;;;;2.13;1.38;;;;;;;24.75;30.56;96491.22;4983043;28;21042;-31
2021/12/23 07:08:58;;;;;;;1.98;1.40;;;;;;;24.76;30.38;96492.09;4985027;28;20038;-32
2021/12/23 07:11:23;;;;;;;2.35;1.63;;;;;;;24.75;30.63;96491.22;4982622;28;20135;-29
2021/12/23 07:13:49;;;;;;;2.15;1.38;;;;;;;24.75;30.54;96488.63;4981487;28;20041;-30
2021/12/23 07:16:15;;;;;;;1.23;1.13;;;;;;;24.75;30.51;96485.16;4980965;28;20053;-30
2021/12/23 07:18:40;;;;;;;1.67;1.20;;;;;;;24.75;30.51;96485.16;4984571;28;20021;-28
2021/12/23 07:21:05;;;;;;;1.50;1.20;;;;;;;24.74;30.38;96489.56;4984886;28;20033;-30
2021/12/23 07:23:31;;;;;;;2.28;1.30;;;;;;;24.74;30.41;96484.31;4981873;28;20928;-27
2021/12/23 07:25:56;;;;;;;2.33;1.80;;;;;;;24.74;30.44;96478.22;4962154;28;20038;-31
2021/12/23 07:28:21;;;;;;;2.63;1.90;;;;;;;24.73;30.23;96487.88;4965485;28;20127;-30
2021/12/23 07:30:47;;;;;;;3.28;2.03;;;;;;;24.72;30.52;96499.28;4982237;28;20490;-29
2021/12/23 07:33:12;;;;;;;13.43;5.60;;;;;;;24.70;29.88;96501.13;4982748;28;20021;-31
2021/12/23 07:35:38;;;;;;;7.28;3.65;;;;;;;24.69;30.14;96496.81;4963358;28;20026;-33
2021/12/23 07:38:03;;;;;;;4.60;2.90;;;;;;;24.69;30.26;96488.09;4965431;28;20038;-31
2021/12/23 07:40:29;;;;;;;6.10;2.90;;;;;;;24.68;30.38;96489.88;4981777;28;20156;-32
2021/12/23 07:42:57;;;;;;;8.93;2.55;;;;;;;24.67;30.46;96485.56;4939081;28;20038;-29
2021/12/23 07:45:26;;;;;;;4.78;2.47;;;;;;;24.65;30.40;96484.81;4981437;28;20030;-32
2021/12/23 07:47:51;;;;;;;8.80;5.13;;;;;;;24.66;30.51;96489.97;4967563;28;20980;-33
2021/12/23 07:50:17;;;;;;;13.20;9.70;;;;;;;24.64;29.07;96483.13;4981235;28;20061;-32
2021/12/23 07:52:42;;;;;;;17.40;9.15;;;;;;;24.61;28.58;96480.66;4977831;28;20049;-31
2021/12/23 07:55:08;;;;;;;13.05;8.95;;;;;;;24.60;27.94;96484.22;4978522;28;20545;-29
2021/12/23 07:57:33;;;;;;;15.60;8.43;;;;;;;24.56;27.83;96483.50;4981962;28;20030;-29
2021/12/23 08:00:01;;;;;;;12.93;8.60;;;;;;;24.52;27.56;96480.22;4982443;28;20081;-26
2021/12/23 08:02:26;;;;;;;12.77;8.48;;;;;;;24.49;27.43;96471.69;4982328;28;20022;-31
2021/12/23 08:04:52;;;;;;;12.82;9.07;;;;;;;24.48;27.18;96483.09;4951435;28;20032;-30
2021/12/23 08:07:17;;;;;;;13.45;8.52;;;;;;;24.43;26.95;96475.47;4984419;28;20032;-34
2021/12/23 08:09:43;;;;;;;13.02;9.45;;;;;;;24.40;26.61;96480.84;4939224;28;23641;-33
2021/12/23 08:12:09;;;;;;;16.42;9.75;;;;;;;24.37;26.47;96476.63;4980851;28;20503;-27
2021/12/23 08:14:35;;;;;;;12.52;9.27;;;;;;;24.34;26.32;96476.81;4983420;28;20058;-28
2021/12/23 08:17:00;;;;;;;12.23;9.45;;;;;;;24.31;26.55;96471.72;4949673;28;20129;-31
2021/12/23 08:19:25;;;;;;;11.88;9.13;;;;;;;24.29;26.30;96464.88;4981981;28;20034;-33
2021/12/23 08:21:51;;;;;;;12.10;9.57;;;;;;;24.27;26.38;96459.72;4983209;28;20075;-32
2021/12/23 08:24:16;;;;;;;7.57;4.90;;;;;;;24.25;27.35;96459.78;4982034;28;20029;-29
2021/12/23 08:26:50;;;;;;;7.95;4.80;;;;;;;24.25;28.09;96444.06;4986721;28;20034;-35
2021/12/23 08:29:17;;;;;;;7.82;4.50;;;;;;;24.25;28.64;96446.69;4984222;28;20057;-32
2021/12/23 08:31:43;;;;;;;10.07;4.18;;;;;;;24.24;28.75;96444.16;4982910;28;20076;-31
2021/12/23 08:34:08;;;;;;;6.90;4.07;;;;;;;24.25;28.85;96449.31;4980807;28;20034;-34
2021/12/23 08:36:34;;;;;;;7.72;4.07;;;;;;;24.26;29.21;96444.94;4983934;28;20676;-30
2021/12/23 08:38:59;;;;;;;8.35;4.15;;;;;;;24.27;29.32;96450.09;4960834;28;20340;-32
2021/12/23 08:41:24;;;;;;;7.13;3.70;;;;;;;24.29;29.63;96446.53;4981824;28;20030;-34
2021/12/23 08:43:50;;;;;;;5.72;3.25;;;;;;;24.30;29.61;96437.75;4988453;28;20030;-29
2021/12/23 08:46:16;;;;;;;8.38;3.90;;;;;;;24.31;29.85;96450.78;4964147;28;20031;-35
2021/12/23 08:48:41;;;;;;;7.35;3.15;;;;;;;24.32;29.75;96443.78;4981104;28;20045;-28
2021/12/23 08:51:07;;;;;;;8.10;3.85;;;;;;;24.33;29.84;96434.97;4982471;28;20026;-35
2021/12/23 08:53:32;;;;;;;9.15;3.55;;;;;;;24.35;29.95;96438.34;4964387;28;20029;-34
2021/12/23 08:55:57;;;;;;;6.43;3.30;;;;;;;24.35;30.03;96447.06;4946984;28;20027;-38
2021/12/23 08:58:23;;;;;;;5.65;3.35;;;;;;;24.36;30.10;96447.88;4979975;28;20048;-34
2021/12/23 09:00:48;;;;;;;7.13;3.03;;;;;;;24.38;30.08;96432.97;4977717;28;20034;-34
2021/12/23 09:03:14;;;;;;;5.30;3.10;;;;;;;24.39;30.21;96432.03;4962136;28;20029;-35
2021/12/23 09:05:40;;;;;;;5.75;3.25;;;;;;;24.40;30.03;96436.31;4977722;28;20025;-32
2021/12/23 09:08:05;;;;;;;4.60;2.70;;;;;;;24.40;30.02;96439.81;4980843;28;20038;-32
2021/12/23 09:10:32;;;;;;;5.07;2.85;;;;;;;24.42;30.39;96441.50;4979748;28;20030;-31
2021/12/23 09:12:57;;;;;;;4.13;2.80;;;;;;;24.42;30.13;96442.34;4979501;28;20061;-36
2021/12/23 09:15:23;;;;;;;5.18;2.75;;;;;;;24.44;30.36;96437.03;4960930;28;20030;-35
2021/12/23 09:17:48;;;;;;;6.03;3.17;;;;;;;24.43;30.14;96425.69;4942108;28;20044;-37
2021/12/23 09:20:15;;;;;;;20.13;3.22;;;;;;;24.44;30.24;96423.94;4965904;28;20121;-30
2021/12/23 09:22:40;;;;;;;15.90;3.30;;;;;;;24.45;30.04;96430.84;4983168;28;20037;-27
2021/12/23 09:25:11;;;;;;;10.65;3.10;;;;;;;24.43;30.03;96420.47;4981462;28;20032;-34
2021/12/23 09:27:51;;;;;;;8.32;3.13;;;;;;;24.46;30.35;96432.53;4963247;28;20118;-34
2021/12/23 09:33:02;;;;;;;18.48;14.90;;;;;;;24.24;21.92;96431.91;4978858;28;20802;-33
2021/12/23 09:35:29;;;;;;;18.90;15.82;;;;;;;23.96;20.36;96429.84;4979895;28;20922;-29
2021/12/23 09:37:55;;;;;;;19.20;15.95;;;;;;;23.60;19.89;96439.47;4976720;28;20030;-33
2021/12/23 09:40:20;;;;;;;20.55;15.38;;;;;;;23.27;19.45;96438.41;4945121;28;20132;-32
2021/12/23 09:42:46;;;;;;;21.67;14.13;;;;;;;22.97;20.82;96431.13;4976831;28;20037;-31
2021/12/23 09:45:16;;;;;;;14.00;12.50;;;;;;;22.79;22.03;96443.25;4982569;28;20110;-27
2021/12/23 09:47:42;;;;;;;16.75;11.10;;;;;;;22.67;23.35;96432.47;4974217;28;20644;-29
2021/12/23 09:50:09;;;;;;;16.42;10.30;;;;;;;22.62;24.00;96429.25;4943384;28;22867;-30
2021/12/23 09:52:35;;;;;;;13.25;9.68;;;;;;;22.62;24.45;96426.63;4975531;28;20066;-31
2021/12/23 09:55:01;;;;;;;11.90;8.43;;;;;;;22.64;24.87;96424.78;4973683;28;21792;-31
2021/12/23 09:57:27;;;;;;;12.23;7.82;;;;;;;22.68;25.06;96434.16;4976976;28;20054;-31
2021/12/23 09:59:54;;;;;;;14.48;7.70;;;;;;;22.74;25.63;96424.34;4947447;28;20503;-33
2021/12/23 10:02:19;;;;;;;10.98;7.10;;;;;;;22.79;25.61;96428.44;4952262;28;20164;-34
2021/12/23 10:04:44;;;;;;;13.10;6.78;;;;;;;22.83;26.15;96416.94;4984778;28;20038;-34
2021/12/23 10:07:10;;;;;;;18.02;6.30;;;;;;;22.90;26.23;96409.66;4991179;28;20036;-33
2021/12/23 10:09:51;;;;;;;8.55;5.68;;;;;;;22.96;26.22;96408.53;4989578;28;20033;-29
2021/12/23 10:31:46;;;;;;;13.00;4.60;;;;;;;23.36;27.20;96397.94;4992528;28;20503;-28
2021/12/23 10:39:35;;;;;;;8.45;4.22;;;;;;;23.46;27.35;96398.31;4985098;28;19933;-33
2021/12/23 10:42:11;;;;;;;11.43;4.03;;;;;;;23.50;27.70;96397.25;4981649;28;20080;-33
2021/12/23 10:44:36;;;;;;;11.70;4.70;;;;;;;23.52;27.57;96384.09;4988544;28;20036;-33
2021/12/23 10:47:02;;;;;;;8.85;3.88;;;;;;;23.56;27.88;96385.63;4973163;28;20025;-31
2021/12/23 10:49:58;;;;;;;5.60;3.47;;;;;;;23.57;27.79;96379.47;4985635;28;20056;-31
2021/12/23 10:52:26;;;;;;;7.07;4.18;;;;;;;23.60;27.71;96381.91;4974761;28;20042;-28
2021/12/23 11:00:25;;;;;;;14.00;4.00;;;;;;;23.66;28.08;96360.69;4982275;28;20032;-31
2021/12/23 11:03:09;;;;;;;10.23;4.25;;;;;;;23.68;28.19;96348.38;4990735;28;20053;-30
2021/12/23 11:05:40;;;;;;;14.07;4.18;;;;;;;23.70;28.38;96346.53;4983389;28;20037;-28
2021/12/23 11:08:29;;;;;;;11.07;3.85;;;;;;;23.70;28.27;96346.53;4990484;28;20041;-32
2021/12/23 11:38:47;;;;;;;10.23;3.15;;;;;;;23.86;29.09;96301.25;4987399;28;20044;-30
2021/12/23 11:41:33;;;;;;;6.93;2.85;;;;;;;23.86;29.03;96285.53;4984408;28;20441;-28
2021/12/23 11:44:00;;;;;;;6.93;3.08;;;;;;;23.87;29.09;96289.88;4983928;28;20034;-33
2021/12/23 11:46:41;;;;;;;11.10;3.45;;;;;;;23.86;29.17;96282.94;4967815;28;20038;-28
2021/12/23 11:49:09;;;;;;;11.70;3.03;;;;;;;23.88;28.93;96283.72;4972768;28;20392;-30
2021/12/23 11:52:17;;;;;;;6.95;2.90;;;;;;;23.88;29.19;96273.25;4971734;28;20030;-30
2021/12/23 11:54:29;;;;;;;9.00;2.80;;;;;;;23.90;28.98;96268.75;4983968;28;20046;-30
2021/12/23 11:57:01;;;;;;;8.00;2.90;;;;;;;23.89;29.11;96261.84;4987714;28;20488;-31
2021/12/23 11:59:27;;;;;;;4.72;2.70;;;;;;;23.90;29.26;96258.28;4961960;28;20041;-28
2021/12/23 12:01:53;;;;;;;7.65;2.72;;;;;;;23.91;29.29;96265.19;4958974;28;20026;-29
2021/12/23 12:04:21;;;;;;;9.27;2.75;;;;;;;23.92;29.19;96253.84;4990593;28;20025;-29
2021/12/23 12:06:47;;;;;;;8.57;2.72;;;;;;;23.95;29.35;96258.06;4986962;28;20523;-30
2021/12/23 12:09:16;;;;;;;3.90;2.40;;;;;;;23.95;28.96;96243.19;4971788;28;20022;-30
2021/12/23 12:11:47;;;;;;;4.55;2.20;;;;;;;23.96;29.13;96239.66;4987482;28;20772;-29
2021/12/23 12:14:40;;;;;;;11.50;2.67;;;;;;;23.98;29.29;96236.94;4988660;28;20112;-29
2021/12/23 12:17:23;;;;;;;6.60;2.67;;;;;;;23.96;29.16;96237.03;4990232;28;20037;-28
2021/12/23 12:20:09;;;;;;;7.20;2.42;;;;;;;23.99;29.17;96236.84;4985877;28;20025;-32
2021/12/23 12:23:00;;;;;;;5.20;2.70;;;;;;;23.98;29.31;96235.16;4978170;28;20821;-30
2021/12/23 12:25:26;;;;;;;5.55;2.22;;;;;;;24.01;29.48;96223.69;4989159;28;20388;-32
2021/12/23 12:27:54;;;;;;;6.75;2.90;;;;;;;24.01;29.30;96227.16;4989015;28;20034;-30
2021/12/23 12:30:21;;;;;;;6.70;3.00;;;;;;;24.01;29.61;96214.06;4974281;28;20584;-28
2021/12/23 12:32:47;;;;;;;5.68;3.00;;;;;;;24.02;29.96;96223.59;4953350;28;20600;-28
2021/12/23 12:35:16;;;;;;;7.32;2.50;;;;;;;24.04;30.11;96220.06;4967625;28;20026;-30
2021/12/23 12:37:45;;;;;;;6.68;2.50;;;;;;;24.04;30.28;96217.44;4973686;28;20056;-30
2021/12/23 12:40:11;;;;;;;5.32;2.83;;;;;;;24.06;30.38;96218.22;4956344;28;20196;-30